createdAt,value
2022-08-05T00:00:52.041Z,100314.59
2022-08-05T00:01:53.822Z,100311.38
2022-08-05T00:02:55.643Z,100311.16
2022-08-05T00:03:57.665Z,100309.09
2022-08-05T00:04:59.340Z,100304.13
2022-08-05T00:06:05.257Z,100306.88
2022-08-05T00:07:59.123Z,100306.03
2022-08-05T00:08:45.210Z,100309.94
2022-08-05T00:09:49.217Z,100309.94
2022-08-05T00:10:50.828Z,100309.47
2022-08-05T00:11:56.061Z,100300.34
2022-08-05T00:13:04.132Z,100302.25
2022-08-05T00:14:12.932Z,100304.97
2022-08-05T00:15:55.577Z,100302.59
2022-08-05T00:16:52.409Z,100299.84
2022-08-05T00:17:55.747Z,100297.94
2022-08-05T00:18:57.348Z,100297.59
2022-08-05T00:20:02.407Z,100301.53
2022-08-05T00:21:08.570Z,100298.22
2022-08-05T00:22:11.495Z,100292.06
2022-08-05T00:23:16.485Z,100290.84
2022-08-05T00:24:19.251Z,100295.81
2022-08-05T00:25:26.781Z,100292.34
2022-08-05T00:26:51.827Z,100292.03
2022-08-05T00:27:54.649Z,100290.50
2022-08-05T00:28:57.220Z,100294.41
2022-08-05T00:29:59.173Z,100298.34
2022-08-05T00:31:07.497Z,100285.00
2022-08-05T00:32:14.905Z,100281.22
2022-08-05T00:34:56.987Z,100294.59
2022-08-05T00:35:03.501Z,100288.94
2022-08-05T00:36:16.637Z,100288.59
2022-08-05T00:37:26.661Z,100283.63
2022-08-05T00:38:42.571Z,100287.75
2022-08-05T00:39:58.850Z,100288.59
2022-08-05T00:41:01.314Z,100286.16
2022-08-05T00:42:04.428Z,100296.63
2022-08-05T00:43:07.418Z,100290.28
2022-08-05T00:44:09.462Z,100288.88
2022-08-05T00:45:13.545Z,100292.84
2022-08-05T00:46:15.473Z,100293.00
2022-08-05T00:47:17.653Z,100297.47
2022-08-05T00:48:27.441Z,100298.84
2022-08-05T00:49:44.595Z,100296.97
2022-08-05T00:50:53.674Z,100297.13
2022-08-05T00:51:55.298Z,100294.53
2022-08-05T00:52:56.999Z,100296.41
2022-08-05T00:54:02.999Z,100291.78
2022-08-05T00:55:07.625Z,100290.25
2022-08-05T00:56:09.619Z,100292.13
2022-08-05T00:57:11.458Z,100293.50
2022-08-05T00:58:17.299Z,100294.69
2022-08-05T00:59:23.773Z,100295.34
2022-08-05T01:00:30.396Z,100287.75
2022-08-05T01:01:42.834Z,100281.94
2022-08-05T01:02:50.405Z,100283.13
2022-08-05T01:03:55.457Z,100286.03
2022-08-05T01:04:57.060Z,100289.63
2022-08-05T01:05:59.011Z,100278.09
2022-08-05T01:07:05.165Z,100283.03
2022-08-05T01:08:31.622Z,100284.94
2022-08-05T01:09:30.507Z,100284.94
2022-08-05T01:10:51.685Z,100286.97
2022-08-05T01:12:03.143Z,100286.81
2022-08-05T01:13:22.293Z,100285.09
2022-08-05T01:14:48.524Z,100284.88
2022-08-05T01:15:58.644Z,100285.22
2022-08-05T01:17:09.256Z,100285.03
2022-08-05T01:18:15.915Z,100282.50
2022-08-05T01:20:01.593Z,100287.09
2022-08-05T01:21:55.858Z,100279.56
2022-08-05T01:23:23.290Z,100285.94
2022-08-05T01:25:00.894Z,100291.03
2022-08-05T01:26:17.618Z,100288.13
2022-08-05T01:27:33.796Z,100286.41
2022-08-05T01:28:39.505Z,100277.31
2022-08-05T01:29:47.636Z,100281.25
2022-08-05T01:31:15.248Z,100280.56
2022-08-05T01:32:20.964Z,100287.19
2022-08-05T01:33:26.326Z,100283.94
2022-08-05T01:34:32.643Z,100281.22
2022-08-05T01:35:52.171Z,100286.50
2022-08-05T01:37:24.665Z,100284.41
2022-08-05T01:38:30.224Z,100289.59
2022-08-05T01:39:46.321Z,100284.75
2022-08-05T01:40:52.180Z,100281.16
2022-08-05T01:41:58.010Z,100279.28
2022-08-05T01:43:03.662Z,100288.84
2022-08-05T01:44:11.306Z,100285.41
2022-08-05T01:45:16.431Z,100284.31
2022-08-05T01:46:41.393Z,100282.94
2022-08-05T01:47:43.271Z,100288.56
2022-08-05T01:48:49.620Z,100284.66
2022-08-05T01:50:01.359Z,100282.28
2022-08-05T01:51:12.533Z,100283.31
2022-08-05T01:52:17.847Z,100276.81
2022-08-05T01:53:55.034Z,100278.00
2022-08-05T01:54:52.030Z,100274.22
2022-08-05T01:56:04.422Z,100271.47
2022-08-05T01:58:09.706Z,100278.00
2022-08-05T01:58:44.947Z,100275.09
2022-08-05T02:00:00.838Z,100279.53
2022-08-05T02:01:03.292Z,100275.41
2022-08-05T02:02:06.494Z,100274.88
2022-08-05T02:03:29.017Z,100265.81
2022-08-05T02:04:36.638Z,100270.09
2022-08-05T02:05:45.039Z,100267.03
2022-08-05T02:06:50.614Z,100265.66
2022-08-05T02:08:00.095Z,100260.72
2022-08-05T02:09:07.869Z,100270.28
2022-08-05T02:10:17.221Z,100261.16
2022-08-05T02:11:23.939Z,100270.56
2022-08-05T02:12:45.086Z,100266.66
2022-08-05T02:14:26.868Z,100263.56
2022-08-05T02:15:44.336Z,100257.03
2022-08-05T02:16:53.937Z,100261.66
2022-08-05T02:18:31.017Z,100255.66
2022-08-05T02:19:46.996Z,100253.06
2022-08-05T02:20:52.116Z,100260.72
2022-08-05T02:22:27.281Z,100255.72
2022-08-05T02:23:33.704Z,100255.34
2022-08-05T02:24:41.696Z,100253.72
2022-08-05T02:25:49.770Z,100255.59
2022-08-05T02:26:58.225Z,100260.38
2022-08-05T02:28:01.657Z,100261.91
2022-08-05T02:29:08.103Z,100257.31
2022-08-05T02:30:26.959Z,100259.38
2022-08-05T02:31:34.760Z,100254.19
2022-08-05T02:32:38.874Z,100256.44
2022-08-05T02:33:48.560Z,100259.66
2022-08-05T02:34:55.005Z,100254.50
2022-08-05T02:36:01.405Z,100256.53
2022-08-05T02:37:05.987Z,100253.78
2022-08-05T02:38:09.470Z,100245.13
2022-08-05T02:39:13.204Z,100247.00
2022-08-05T02:40:17.178Z,100250.75
2022-08-05T02:41:20.286Z,100245.59
2022-08-05T02:42:27.615Z,100246.28
2022-08-05T02:43:34.583Z,100243.56
2022-08-05T02:44:57.010Z,100243.94
2022-08-05T02:46:01.118Z,100244.09
2022-08-05T02:47:09.770Z,100242.94
2022-08-05T02:48:13.222Z,100248.56
2022-08-05T02:49:19.821Z,100247.16
2022-08-05T02:50:24.879Z,100244.25
2022-08-05T02:51:28.562Z,100238.06
2022-08-05T02:52:51.811Z,100240.66
2022-08-05T02:53:54.765Z,100238.06
2022-08-05T02:54:57.697Z,100234.50
2022-08-05T02:56:02.444Z,100243.88
2022-08-05T02:58:10.840Z,100237.38
2022-08-05T02:58:51.422Z,100241.69
2022-08-05T02:59:54.937Z,100242.56
2022-08-05T03:00:58.856Z,100240.81
2022-08-05T03:02:02.303Z,100234.97
2022-08-05T03:03:10.181Z,100239.75
2022-08-05T03:04:14.581Z,100229.81
2022-08-05T03:05:21.690Z,100236.31
2022-08-05T03:06:54.362Z,100238.19
2022-08-05T03:08:08.492Z,100228.25
2022-08-05T03:09:17.585Z,100235.28
2022-08-05T03:10:29.140Z,100224.13
2022-08-05T03:11:55.022Z,100233.19
2022-08-05T03:12:54.162Z,100226.47
2022-08-05T03:14:02.802Z,100232.97
2022-08-05T03:15:09.339Z,100229.13
2022-08-05T03:16:11.166Z,100227.63
2022-08-05T03:17:17.626Z,100226.94
2022-08-05T03:18:29.856Z,100231.06
2022-08-05T03:19:34.470Z,100236.94
2022-08-05T03:20:38.583Z,100234.75
2022-08-05T03:21:50.331Z,100233.25
2022-08-05T03:22:53.227Z,100229.00
2022-08-05T03:24:00.072Z,100232.94
2022-08-05T03:25:31.716Z,100238.78
2022-08-05T03:26:32.023Z,100235.69
2022-08-05T03:27:57.925Z,100231.38
2022-08-05T03:28:56.435Z,100227.41
2022-08-05T03:30:07.536Z,100229.59
2022-08-05T03:31:11.075Z,100223.41
2022-08-05T03:32:33.130Z,100222.81
2022-08-05T03:33:51.129Z,100228.41
2022-08-05T03:34:54.898Z,100229.91
2022-08-05T03:35:58.850Z,100232.50
2022-08-05T03:37:01.475Z,100237.97
2022-08-05T03:38:03.973Z,100227.56
2022-08-05T03:39:09.219Z,100242.44
2022-08-05T03:40:24.138Z,100232.88
2022-08-05T03:41:38.636Z,100232.56
2022-08-05T03:42:51.670Z,100245.38
2022-08-05T03:44:08.040Z,100247.13
2022-08-05T03:45:21.146Z,100240.63
2022-08-05T03:46:26.814Z,100242.00
2022-08-05T03:47:35.266Z,100235.53
2022-08-05T03:48:37.526Z,100233.66
2022-08-05T03:49:51.433Z,100234.38
2022-08-05T03:52:35.184Z,100246.00
2022-08-05T03:52:37.323Z,100240.53
2022-08-05T03:55:50.264Z,100248.44
2022-08-05T03:56:05.845Z,100246.72
2022-08-05T03:57:00.107Z,100245.72
2022-08-05T03:58:04.039Z,100240.06
2022-08-05T03:59:10.627Z,100250.00
2022-08-05T04:00:16.307Z,100246.56
2022-08-05T04:01:21.273Z,100251.88
2022-08-05T04:02:38.500Z,100258.91
2022-08-05T04:04:08.853Z,100258.56
2022-08-05T04:05:13.201Z,100270.31
2022-08-05T04:06:17.819Z,100255.28
2022-08-05T04:07:24.810Z,100261.97
2022-08-05T04:08:35.095Z,100259.25
2022-08-05T04:09:38.585Z,100258.72
2022-08-05T04:10:56.440Z,100263.50
2022-08-05T04:11:59.862Z,100253.56
2022-08-05T04:13:04.243Z,100255.44
2022-08-05T04:14:07.270Z,100259.19
2022-08-05T04:15:10.720Z,100255.19
2022-08-05T04:16:24.948Z,100265.44
2022-08-05T04:17:55.612Z,100259.44
2022-08-05T04:18:54.168Z,100260.78
2022-08-05T04:19:58.746Z,100256.88
2022-08-05T04:21:00.656Z,100257.72
2022-08-05T04:22:09.668Z,100255.13
2022-08-05T04:23:16.083Z,100252.41
2022-08-05T04:24:19.265Z,100251.00
2022-08-05T04:25:57.956Z,100250.00
2022-08-05T04:26:46.624Z,100257.81
2022-08-05T04:27:57.368Z,100258.97
2022-08-05T04:29:01.268Z,100258.13
2022-08-05T04:30:10.468Z,100255.69
2022-08-05T04:31:12.184Z,100252.41
2022-08-05T04:32:13.848Z,100246.41
2022-08-05T04:33:54.591Z,100245.88
2022-08-05T04:34:43.687Z,100249.44
2022-08-05T04:36:15.626Z,100244.69
2022-08-05T04:37:07.178Z,100250.84
2022-08-05T04:38:09.688Z,100251.56
2022-08-05T04:39:21.714Z,100256.88
2022-08-05T04:40:23.576Z,100253.59
2022-08-05T04:41:36.590Z,100249.66
2022-08-05T04:42:38.985Z,100251.25
2022-08-05T04:43:48.284Z,100243.06
2022-08-05T04:44:54.684Z,100245.59
2022-08-05T04:45:56.378Z,100249.94
2022-08-05T04:46:59.577Z,100253.03
2022-08-05T04:48:28.032Z,100245.72
2022-08-05T04:49:38.675Z,100243.66
2022-08-05T04:51:02.483Z,100249.13
2022-08-05T04:52:11.846Z,100256.00
2022-08-05T04:53:15.816Z,100250.91
2022-08-05T04:54:19.676Z,100252.78
2022-08-05T04:56:14.874Z,100256.53
2022-08-05T04:56:43.625Z,100261.84
2022-08-05T04:57:47.530Z,100259.97
2022-08-05T04:58:50.198Z,100257.22
2022-08-05T04:59:52.534Z,100261.41
2022-08-05T05:00:54.501Z,100259.38
2022-08-05T05:02:35.737Z,100256.63
2022-08-05T05:03:20.466Z,100265.84
2022-08-05T05:04:22.159Z,100255.75
2022-08-05T05:05:28.216Z,100266.53
2022-08-05T05:06:39.034Z,100269.28
2022-08-05T05:07:53.066Z,100266.38
2022-08-05T05:08:58.429Z,100274.13
2022-08-05T05:10:05.436Z,100267.16
2022-08-05T05:11:08.043Z,100269.25
2022-08-05T05:12:09.857Z,100269.34
2022-08-05T05:13:16.040Z,100268.53
2022-08-05T05:14:19.056Z,100270.97
2022-08-05T05:15:59.443Z,100276.25
2022-08-05T05:16:51.419Z,100271.81
2022-08-05T05:17:57.871Z,100270.63
2022-08-05T05:19:18.777Z,100265.31
2022-08-05T05:20:21.436Z,100269.97
2022-08-05T05:21:29.750Z,100263.16
2022-08-05T05:22:36.128Z,100265.91
2022-08-05T05:24:04.230Z,100270.56
2022-08-05T05:25:16.630Z,100271.81
2022-08-05T05:26:18.813Z,100266.53
2022-08-05T05:27:20.399Z,100268.78
2022-08-05T05:28:24.933Z,100271.56
2022-08-05T05:30:04.651Z,100274.13
2022-08-05T05:30:49.784Z,100271.22
2022-08-05T05:31:51.729Z,100272.75
2022-08-05T05:32:54.720Z,100272.50
2022-08-05T05:33:58.599Z,100266.88
2022-08-05T05:35:01.713Z,100274.13
2022-08-05T05:36:05.234Z,100269.97
2022-08-05T05:37:07.073Z,100272.06
2022-08-05T05:38:09.181Z,100264.72
2022-08-05T05:39:14.999Z,100261.31
2022-08-05T05:40:22.601Z,100261.31
2022-08-05T05:41:40.573Z,100257.88
2022-08-05T05:42:47.167Z,100256.34
2022-08-05T05:43:58.362Z,100253.94
2022-08-05T05:45:02.925Z,100260.97
2022-08-05T05:46:05.263Z,100262.38
2022-08-05T05:47:21.362Z,100264.94
2022-08-05T05:48:27.664Z,100258.75
2022-08-05T05:49:29.535Z,100259.09
2022-08-05T05:50:31.371Z,100263.75
2022-08-05T05:51:50.330Z,100261.34
2022-08-05T05:52:52.862Z,100253.66
2022-08-05T05:53:58.710Z,100272.19
2022-08-05T05:55:07.398Z,100276.69
2022-08-05T05:56:15.327Z,100271.19
2022-08-05T05:57:42.836Z,100275.84
2022-08-05T05:58:49.748Z,100271.72
2022-08-05T05:59:52.465Z,100277.22
2022-08-05T06:00:54.484Z,100278.41
2022-08-05T06:01:57.750Z,100270.53
2022-08-05T06:03:02.274Z,100278.81
2022-08-05T06:04:04.044Z,100282.94
2022-08-05T06:05:16.961Z,100280.59
2022-08-05T06:06:18.766Z,100271.84
2022-08-05T06:07:41.306Z,100279.94
2022-08-05T06:08:44.414Z,100286.66
2022-08-05T06:10:03.423Z,100280.13
2022-08-05T06:11:08.768Z,100269.88
2022-08-05T06:12:15.115Z,100272.00
2022-08-05T06:13:17.407Z,100277.66
2022-08-05T06:14:19.298Z,100269.31
2022-08-05T06:15:24.157Z,100272.94
2022-08-05T06:16:31.067Z,100271.06
2022-08-05T06:17:53.683Z,100264.44
2022-08-05T06:18:55.844Z,100267.41
2022-08-05T06:20:01.969Z,100270.38
2022-08-05T06:21:04.524Z,100265.06
2022-08-05T06:22:09.719Z,100260.38
2022-08-05T06:23:11.467Z,100262.97
2022-08-05T06:24:14.764Z,100260.44
2022-08-05T06:25:59.449Z,100259.34
2022-08-05T06:26:38.262Z,100257.22
2022-08-05T06:28:11.763Z,100259.72
2022-08-05T06:29:03.713Z,100256.97
2022-08-05T06:30:23.621Z,100261.59
2022-08-05T06:31:32.170Z,100256.91
2022-08-05T06:32:35.477Z,100258.25
2022-08-05T06:34:07.935Z,100251.88
2022-08-05T06:34:59.575Z,100255.00
2022-08-05T06:36:10.299Z,100252.13
2022-08-05T06:37:12.361Z,100266.25
2022-08-05T06:38:14.132Z,100261.56
2022-08-05T06:39:17.816Z,100259.81
2022-08-05T06:40:27.967Z,100261.72
2022-08-05T06:41:34.801Z,100264.66
2022-08-05T06:42:42.926Z,100265.84
2022-08-05T06:43:58.799Z,100263.69
2022-08-05T06:45:05.635Z,100258.44
2022-08-05T06:46:10.656Z,100265.03
2022-08-05T06:47:29.932Z,100264.31
2022-08-05T06:48:52.945Z,100271.38
2022-08-05T06:50:00.713Z,100270.28
2022-08-05T06:51:07.348Z,100268.16
2022-08-05T06:52:38.126Z,100270.34
2022-08-05T06:53:33.395Z,100270.84
2022-08-05T06:54:41.177Z,100266.38
2022-08-05T06:55:42.865Z,100278.75
2022-08-05T06:56:54.905Z,100279.09
2022-08-05T06:58:29.766Z,100284.19
2022-08-05T06:59:38.565Z,100284.03
2022-08-05T07:00:43.978Z,100286.22
2022-08-05T07:01:46.418Z,100281.81
2022-08-05T07:02:54.601Z,100282.38
2022-08-05T07:03:56.310Z,100278.78
2022-08-05T07:04:58.122Z,100281.31
2022-08-05T07:06:05.811Z,100287.47
2022-08-05T07:07:15.854Z,100287.09
2022-08-05T07:08:26.005Z,100289.41
2022-08-05T07:09:27.697Z,100282.59
2022-08-05T07:10:34.317Z,100280.81
2022-08-05T07:11:37.192Z,100290.78
2022-08-05T07:12:57.768Z,100290.16
2022-08-05T07:14:20.802Z,100290.75
2022-08-05T07:16:01.635Z,100292.44
2022-08-05T07:17:59.467Z,100291.00
2022-08-05T07:18:29.449Z,100281.91
2022-08-05T07:20:16.645Z,100295.53
2022-08-05T07:20:54.154Z,100298.69
2022-08-05T07:22:00.000Z,100309.56
2022-08-05T07:23:02.598Z,100314.31
2022-08-05T07:24:11.231Z,100310.00
2022-08-05T07:25:54.251Z,100317.56
2022-08-05T07:26:35.032Z,100311.06
2022-08-05T07:27:56.474Z,100319.34
2022-08-05T07:28:59.788Z,100313.69
2022-08-05T07:30:23.888Z,100316.94
2022-08-05T07:31:41.065Z,100316.72
2022-08-05T07:32:45.154Z,100323.25
2022-08-05T07:33:54.986Z,100316.38
2022-08-05T07:35:01.528Z,100332.06
2022-08-05T07:36:23.377Z,100315.09
2022-08-05T07:37:29.091Z,100314.34
2022-08-05T07:38:43.500Z,100313.38
2022-08-05T07:40:25.836Z,100304.09
2022-08-05T07:42:09.594Z,100311.47
2022-08-05T07:42:34.019Z,100314.91
2022-08-05T07:43:39.818Z,100312.81
2022-08-05T07:44:44.470Z,100317.06
2022-08-05T07:45:57.381Z,100316.16
2022-08-05T07:46:59.958Z,100312.13
2022-08-05T07:48:02.802Z,100318.72
2022-08-05T07:49:06.337Z,100315.09
2022-08-05T07:50:10.042Z,100314.69
2022-08-05T07:51:23.311Z,100312.72
2022-08-05T07:52:38.708Z,100320.75
2022-08-05T07:53:50.261Z,100315.63
2022-08-05T07:54:53.015Z,100326.13
2022-08-05T07:56:05.159Z,100329.34
2022-08-05T07:57:22.667Z,100332.31
2022-08-05T07:58:58.564Z,100326.66
2022-08-05T07:59:52.074Z,100335.84
2022-08-05T08:00:53.818Z,100328.16
2022-08-05T08:01:57.696Z,100332.78
2022-08-05T08:03:15.150Z,100336.00
2022-08-05T08:04:17.699Z,100336.66
2022-08-05T08:05:49.299Z,100342.91
2022-08-05T08:06:51.318Z,100336.94
2022-08-05T08:07:59.698Z,100336.56
2022-08-05T08:09:02.232Z,100339.22
2022-08-05T08:10:05.447Z,100341.84
2022-08-05T08:11:08.956Z,100344.81
2022-08-05T08:12:33.540Z,100345.38
2022-08-05T08:13:42.704Z,100349.78
2022-08-05T08:14:51.331Z,100350.47
2022-08-05T08:16:35.562Z,100349.09
2022-08-05T08:17:16.403Z,100353.63
2022-08-05T08:18:20.912Z,100349.75
2022-08-05T08:20:21.790Z,100348.75
2022-08-05T08:21:02.819Z,100349.69
2022-08-05T08:22:06.935Z,100355.25
2022-08-05T08:23:11.520Z,100365.13
2022-08-05T08:24:50.988Z,100365.28
2022-08-05T08:26:00.163Z,100358.56
2022-08-05T08:27:07.062Z,100364.94
2022-08-05T08:28:18.137Z,100361.50
2022-08-05T08:29:29.329Z,100368.16
2022-08-05T08:30:47.283Z,100374.28
2022-08-05T08:31:53.206Z,100382.31
2022-08-05T08:32:54.871Z,100380.09
2022-08-05T08:33:56.634Z,100379.84
2022-08-05T08:34:58.767Z,100388.25
2022-08-05T08:36:29.690Z,100390.59
2022-08-05T08:37:28.024Z,100384.75
2022-08-05T08:38:35.220Z,100385.50
2022-08-05T08:39:49.329Z,100383.25
2022-08-05T08:40:51.885Z,100387.38
2022-08-05T08:42:00.152Z,100392.28
2022-08-05T08:45:04.487Z,100384.72
2022-08-05T08:45:21.320Z,100380.28
2022-08-05T08:45:54.975Z,100380.28
2022-08-05T08:46:57.184Z,100381.09
2022-08-05T08:48:22.586Z,100384.75
2022-08-05T08:50:22.656Z,100373.16
2022-08-05T08:51:03.680Z,100379.19
2022-08-05T08:52:19.644Z,100386.66
2022-08-05T08:53:24.702Z,100381.31
2022-08-05T08:54:28.505Z,100390.28
2022-08-05T08:56:01.710Z,100391.81
2022-08-05T08:56:52.124Z,100392.06
2022-08-05T08:57:58.241Z,100390.66
2022-08-05T08:59:09.764Z,100398.88
2022-08-05T09:00:19.280Z,100391.28
2022-08-05T09:01:21.398Z,100400.88
2022-08-05T09:02:26.658Z,100406.06
2022-08-05T09:03:40.622Z,100415.22
2022-08-05T09:05:16.955Z,100401.31
2022-08-05T09:06:12.081Z,100407.72
2022-08-05T09:07:19.607Z,100409.84
2022-08-05T09:08:30.516Z,100402.47
2022-08-05T09:09:38.006Z,100410.88
2022-08-05T09:10:46.881Z,100413.84
2022-08-05T09:11:51.372Z,100415.84
2022-08-05T09:12:58.935Z,100417.56
2022-08-05T09:14:55.387Z,100420.91
2022-08-05T09:15:30.429Z,100407.63
2022-08-05T09:16:32.501Z,100411.38
2022-08-05T09:17:41.243Z,100414.28
2022-08-05T09:18:44.487Z,100415.50
2022-08-05T09:19:55.084Z,100410.09
2022-08-05T09:21:04.801Z,100424.81
2022-08-05T09:22:22.888Z,100420.59
2022-08-05T09:23:37.415Z,100421.91
2022-08-05T09:24:58.067Z,100418.22
2022-08-05T09:26:11.527Z,100423.19
2022-08-05T09:28:04.704Z,100426.59
2022-08-05T09:29:08.850Z,100422.34
2022-08-05T09:30:16.415Z,100420.47
2022-08-05T09:31:43.312Z,100418.03
2022-08-05T09:32:46.685Z,100418.09
2022-08-05T09:33:58.648Z,100420.59
2022-08-05T09:35:12.618Z,100411.44
2022-08-05T09:36:54.569Z,100413.19
2022-08-05T09:38:11.947Z,100422.88
2022-08-05T09:39:21.990Z,100423.81
2022-08-05T09:40:36.334Z,100415.13
2022-08-05T09:41:57.060Z,100410.44
2022-08-05T09:43:01.266Z,100409.78
2022-08-05T09:44:06.422Z,100413.41
2022-08-05T09:46:04.945Z,100425.81
2022-08-05T09:46:34.967Z,100416.16
2022-08-05T09:47:55.516Z,100416.78
2022-08-05T09:49:06.870Z,100409.50
2022-08-05T09:50:10.535Z,100420.16
2022-08-05T09:51:15.276Z,100410.84
2022-08-05T09:52:26.682Z,100411.06
2022-08-05T09:53:54.262Z,100409.13
2022-08-05T09:55:58.410Z,100407.63
2022-08-05T09:56:37.960Z,100409.53
2022-08-05T09:57:45.404Z,100402.09
2022-08-05T09:59:09.021Z,100402.84
2022-08-05T10:00:18.616Z,100405.34
2022-08-05T10:01:32.047Z,100400.31
2022-08-05T10:02:37.534Z,100402.75
2022-08-05T10:04:00.080Z,100410.59
2022-08-05T10:05:26.788Z,100409.31
2022-08-05T10:06:29.287Z,100415.72
2022-08-05T10:08:35.407Z,100410.75
2022-08-05T10:09:27.781Z,100408.97
2022-08-05T10:10:46.094Z,100413.91
2022-08-05T10:11:52.074Z,100409.19
2022-08-05T10:12:57.136Z,100397.34
2022-08-05T10:13:58.809Z,100405.50
2022-08-05T10:15:22.250Z,100396.31
2022-08-05T10:16:37.667Z,100394.31
2022-08-05T10:17:47.392Z,100394.06
2022-08-05T10:18:59.118Z,100396.59
2022-08-05T10:20:03.577Z,100390.81
2022-08-05T10:21:11.991Z,100389.91
2022-08-05T10:22:29.477Z,100393.78
2022-08-05T10:23:59.052Z,100393.50
2022-08-05T10:24:59.519Z,100396.50
2022-08-05T10:26:07.119Z,100398.88
2022-08-05T10:27:11.170Z,100392.75
2022-08-05T10:28:19.531Z,100391.41
2022-08-05T10:30:41.556Z,100388.31
2022-08-05T10:32:53.682Z,100391.69
2022-08-05T10:32:55.078Z,100385.16
2022-08-05T10:33:57.229Z,100386.78
2022-08-05T10:35:01.174Z,100388.06
2022-08-05T10:36:04.916Z,100379.94
2022-08-05T10:37:08.234Z,100388.22
2022-08-05T10:38:13.548Z,100374.16
2022-08-05T10:40:03.401Z,100379.31
2022-08-05T10:40:58.157Z,100380.81
2022-08-05T10:42:11.777Z,100371.81
2022-08-05T10:43:24.442Z,100372.81
2022-08-05T10:44:39.539Z,100374.34
2022-08-05T10:45:56.629Z,100373.66
2022-08-05T10:47:26.237Z,100368.19
2022-08-05T10:48:52.421Z,100367.47
2022-08-05T10:50:36.096Z,100363.88
2022-08-05T10:51:48.686Z,100367.50
2022-08-05T10:53:01.718Z,100361.78
2022-08-05T10:54:28.416Z,100362.19
2022-08-05T10:55:29.990Z,100355.78
2022-08-05T10:56:52.880Z,100365.38
2022-08-05T10:58:11.699Z,100364.09
2022-08-05T11:00:02.639Z,100362.78
2022-08-05T11:00:46.327Z,100367.63
2022-08-05T11:01:55.623Z,100362.31
2022-08-05T11:03:24.575Z,100362.03
2022-08-05T11:04:28.272Z,100368.72
2022-08-05T11:05:34.531Z,100367.91
2022-08-05T11:07:04.785Z,100361.53
2022-08-05T11:08:34.266Z,100361.28
2022-08-05T11:09:51.393Z,100364.75
2022-08-05T11:11:44.592Z,100353.22
2022-08-05T11:12:55.186Z,100358.75
2022-08-05T11:13:58.555Z,100359.50
2022-08-05T11:15:23.314Z,100356.53
2022-08-05T11:16:56.112Z,100347.81
2022-08-05T11:18:24.577Z,100341.47
2022-08-05T11:20:16.982Z,100349.78
2022-08-05T11:20:54.171Z,100351.59
2022-08-05T11:21:57.881Z,100348.66
2022-08-05T11:23:05.761Z,100344.25
2022-08-05T11:24:30.059Z,100349.16
2022-08-05T11:26:04.742Z,100349.38
2022-08-05T11:27:51.059Z,100345.97
2022-08-05T11:28:57.071Z,100352.78
2022-08-05T11:30:03.851Z,100353.88
2022-08-05T11:31:06.173Z,100349.59
2022-08-05T11:32:28.760Z,100356.38
2022-08-05T11:33:46.603Z,100363.47
2022-08-05T11:34:53.986Z,100354.94
2022-08-05T11:36:07.938Z,100364.09
2022-08-05T11:38:26.746Z,100361.75
2022-08-05T11:38:45.970Z,100369.88
2022-08-05T11:39:55.253Z,100362.63
2022-08-05T11:41:01.282Z,100366.00
2022-08-05T11:42:10.272Z,100369.22
2022-08-05T11:44:01.009Z,100370.28
2022-08-05T11:44:53.638Z,100375.00
2022-08-05T11:46:27.487Z,100370.50
2022-08-05T11:47:49.680Z,100374.13
2022-08-05T11:48:46.982Z,100373.69
2022-08-05T11:50:00.583Z,100383.06
2022-08-05T11:51:03.590Z,100374.28
2022-08-05T11:52:11.208Z,100369.16
2022-08-05T11:53:13.443Z,100372.75
2022-08-05T11:54:33.831Z,100383.22
2022-08-05T11:55:36.635Z,100378.13
2022-08-05T11:57:00.671Z,100380.69
2022-08-05T11:58:09.175Z,100383.47
2022-08-05T11:59:16.191Z,100388.13
2022-08-05T12:00:31.326Z,100387.09
2022-08-05T12:01:33.182Z,100383.91
2022-08-05T12:02:36.106Z,100384.75
2022-08-05T12:03:57.156Z,100382.16
2022-08-05T12:05:06.884Z,100384.22
2022-08-05T12:06:11.282Z,100377.38
2022-08-05T12:07:15.812Z,100376.09
2022-08-05T12:08:18.295Z,100370.44
2022-08-05T12:09:52.873Z,100369.44
2022-08-05T12:10:56.106Z,100371.88
2022-08-05T12:11:57.894Z,100366.13
2022-08-05T12:13:15.799Z,100371.41
2022-08-05T12:14:19.454Z,100362.59
2022-08-05T12:15:33.241Z,100377.03
2022-08-05T12:16:46.309Z,100379.06
2022-08-05T12:18:02.849Z,100383.84
2022-08-05T12:20:27.201Z,100375.41
2022-08-05T12:20:38.430Z,100381.34
2022-08-05T12:21:48.839Z,100389.53
2022-08-05T12:22:51.850Z,100379.97
2022-08-05T12:24:07.581Z,100389.75
2022-08-05T12:25:09.656Z,100398.16
2022-08-05T12:26:16.001Z,100394.97
2022-08-05T12:27:33.129Z,100381.06
2022-08-05T12:28:37.676Z,100381.84
2022-08-05T12:29:39.514Z,100386.34
2022-08-05T12:30:45.765Z,100384.66
2022-08-05T12:32:02.190Z,100378.97
2022-08-05T12:33:07.231Z,100382.84
2022-08-05T12:34:31.435Z,100373.97
2022-08-05T12:35:39.483Z,100385.63
2022-08-05T12:36:43.249Z,100378.50
2022-08-05T12:37:47.173Z,100379.72
2022-08-05T12:38:50.497Z,100371.56
2022-08-05T12:39:53.906Z,100373.28
2022-08-05T12:40:57.315Z,100373.47
2022-08-05T12:42:02.562Z,100377.03
2022-08-05T12:43:07.159Z,100378.13
2022-08-05T12:44:33.090Z,100375.00
2022-08-05T12:45:42.549Z,100369.72
2022-08-05T12:46:55.459Z,100375.47
2022-08-05T12:48:17.185Z,100377.41
2022-08-05T12:49:25.460Z,100371.91
2022-08-05T12:50:27.567Z,100373.63
2022-08-05T12:52:12.790Z,100363.81
2022-08-05T12:53:16.860Z,100370.66
2022-08-05T12:54:23.435Z,100371.69
2022-08-05T12:55:28.389Z,100363.78
2022-08-05T12:56:37.331Z,100370.91
2022-08-05T12:58:13.587Z,100376.72
2022-08-05T12:59:27.506Z,100378.31
2022-08-05T13:02:03.205Z,100374.50
2022-08-05T13:02:12.581Z,100377.16
2022-08-05T13:03:15.943Z,100375.50
2022-08-05T13:04:21.224Z,100377.91
2022-08-05T13:05:24.425Z,100378.88
2022-08-05T13:06:51.530Z,100380.69
2022-08-05T13:07:59.992Z,100385.72
2022-08-05T13:09:13.959Z,100377.63
2022-08-05T13:10:19.715Z,100380.53
2022-08-05T13:12:02.150Z,100371.06
2022-08-05T13:12:58.028Z,100370.53
2022-08-05T13:14:06.427Z,100365.16
2022-08-05T13:15:14.415Z,100366.03
2022-08-05T13:16:20.296Z,100364.81
2022-08-05T13:17:31.840Z,100367.56
2022-08-05T13:18:57.927Z,100368.44
2022-08-05T13:20:08.611Z,100376.78
2022-08-05T13:21:10.394Z,100372.66
2022-08-05T13:22:28.086Z,100374.38
2022-08-05T13:23:31.586Z,100372.91
2022-08-05T13:24:57.874Z,100379.25
2022-08-05T13:26:01.313Z,100377.13
2022-08-05T13:28:20.480Z,100372.66
2022-08-05T13:29:37.621Z,100375.50
2022-08-05T13:30:39.975Z,100372.91
2022-08-05T13:32:04.949Z,100378.25
2022-08-05T13:33:04.217Z,100362.22
2022-08-05T13:34:22.573Z,100364.75